Belize City, Belize
Current Conditions -  °F | °C
As of 6:00 PM on Wednesday 26 Nov 2014 (Local Time) from MZBZ Reporting Station
Scattered Clouds Scattered Clouds  
Wind Chill: 23°   Ceiling: Unl
Heat Index: 23°   Visibility: 6mi
Dew Point: 19°   Wind: 6mph
Humidity: 78%   Direction: 330°NNW
Pressure: 30.12"   Gusts: NA
Location:  17.5°N, 88.19°W
Report Text: MZBZ 270000Z 33005KT 9999 FEW021 SCT043 23/19 A3012 Q1020 NOSIG
Loading
Personal Weather Stations






























Interactive Weather Map New forecast layout! Learn more

10-Day Weather Forecast

Advertisements
Track Severe Weather on mobile